Highland-University Park's Hourly Summary for Thursday, March 16, 2017
Hour Temp
(f)
RH
(%)
Solar Rad.
(MJ/m2)
Rainfall
(in)
Wind
(mph)
3/16/2017 12:00 AM 56 57 0 0 4.41
3/16/2017 1:00 AM 54 62 0 0 3.3
3/16/2017 2:00 AM 53 67 0 0 2.66
3/16/2017 3:00 AM 52 71 0 0 3.16
3/16/2017 4:00 AM 51 74 0 0 2.76
3/16/2017 5:00 AM 53 80 0 0 2.66
3/16/2017 6:00 AM 54 85 0 0 1.96
3/16/2017 7:00 AM 55 88 0 0 2.38
3/16/2017 8:00 AM 56 88 0.01 0 2.09
3/16/2017 9:00 AM 57 88 0.1 0 2.26
3/16/2017 10:00 AM 57 88 0.11 0 1.62
3/16/2017 11:00 AM 58 86 0.2 0 2.33
3/16/2017 12:00 PM 59 83 0.33 0 2.01
3/16/2017 1:00 PM 61 79 0.54 0 2.64
3/16/2017 2:00 PM 64 73 0.71 0 1.76
3/16/2017 3:00 PM 66 71 0.87 0 2.59
3/16/2017 4:00 PM 69 69 0.76 0 2.65
3/16/2017 5:00 PM 70 64 1.01 0 3.4
3/16/2017 6:00 PM 71 63 0.6 0 3.68
3/16/2017 7:00 PM 72 61 0.42 0 2.93
3/16/2017 8:00 PM 71 65 0.03 0 2.55
3/16/2017 9:00 PM 69 69 0 0 2.31
3/16/2017 10:00 PM 68 73 0 0 3.35
3/16/2017 11:00 PM 66 77 0 0 3.22
Data Summary 60 74 5.69 0.00 2.70